sensor_id;sensor_type;location;lat;lon;timestamp;temperature;humidity
8780;DHT22;62328;51.19929245;4.42130175;2023-10-19T00:00:49;15.70;99.90
8780;DHT22;62328;51.19929245;4.42130175;2023-10-19T00:03:17;15.80;99.90
8780;DHT22;62328;51.19929245;4.42130175;2023-10-19T00:05:45;15.80;99.90
8780;DHT22;62328;51.19929245;4.42130175;2023-10-19T00:08:12;15.80;99.90
8780;DHT22;62328;51.19929245;4.42130175;2023-10-19T00:10:46;15.80;99.90
8780;DHT22;62328;51.19929245;4.42130175;2023-10-19T00:13:14;15.90;99.90
8780;DHT22;62328;51.19929245;4.42130175;2023-10-19T00:15:42;15.90;99.90
8780;DHT22;62328;51.19929245;4.42130175;2023-10-19T00:18:15;15.90;99.90
8780;DHT22;62328;51.19929245;4.42130175;2023-10-19T00:20:50;16.00;99.90
8780;DHT22;62328;51.19929245;4.42130175;2023-10-19T00:23:19;16.00;99.90
8780;DHT22;62328;51.19929245;4.42130175;2023-10-19T00:25:55;16.00;99.90
8780;DHT22;62328;51.19929245;4.42130175;2023-10-19T00:28:21;16.00;99.90
8780;DHT22;62328;51.19929245;4.42130175;2023-10-19T00:30:48;16.00;99.90
8780;DHT22;62328;51.19929245;4.42130175;2023-10-19T00:33:19;16.00;99.90
8780;DHT22;62328;51.19929245;4.42130175;2023-10-19T00:35:47;16.00;99.90
8780;DHT22;62328;51.19929245;4.42130175;2023-10-19T00:38:22;15.90;99.90
8780;DHT22;62328;51.19929245;4.42130175;2023-10-19T00:41:05;15.90;99.90
8780;DHT22;62328;51.19929245;4.42130175;2023-10-19T00:43:38;15.90;99.90
8780;DHT22;62328;51.19929245;4.42130175;2023-10-19T00:46:08;16.00;99.90
8780;DHT22;62328;51.19929245;4.42130175;2023-10-19T00:48:45;15.90;99.90
8780;DHT22;62328;51.19929245;4.42130175;2023-10-19T00:51:13;15.90;99.90
8780;DHT22;62328;51.19929245;4.42130175;2023-10-19T00:53:54;15.80;99.90
8780;DHT22;62328;51.19929245;4.42130175;2023-10-19T00:56:23;15.90;99.90
8780;DHT22;62328;51.19929245;4.42130175;2023-10-19T00:58:52;15.90;99.90
8780;DHT22;62328;51.19929245;4.42130175;2023-10-19T01:01:28;15.90;99.90
8780;DHT22;62328;51.19929245;4.42130175;2023-10-19T01:03:57;15.90;99.90
8780;DHT22;62328;51.19929245;4.42130175;2023-10-19T01:06:25;15.90;99.90
8780;DHT22;62328;51.19929245;4.42130175;2023-10-19T01:08:57;15.90;99.90
8780;DHT22;62328;51.19929245;4.42130175;2023-10-19T01:11:24;15.80;99.90
8780;DHT22;62328;51.19929245;4.42130175;2023-10-19T01:13:54;15.80;99.90
8780;DHT22;62328;51.19929245;4.42130175;2023-10-19T01:16:21;15.80;99.90
8780;DHT22;62328;51.19929245;4.42130175;2023-10-19T01:18:49;15.80;99.90
8780;DHT22;62328;51.19929245;4.42130175;2023-10-19T01:21:22;15.80;99.90
8780;DHT22;62328;51.19929245;4.42130175;2023-10-19T01:23:54;15.80;99.90
8780;DHT22;62328;51.19929245;4.42130175;2023-10-19T01:26:22;15.80;99.90
8780;DHT22;62328;51.19929245;4.42130175;2023-10-19T01:28:51;15.80;99.90
8780;DHT22;62328;51.19929245;4.42130175;2023-10-19T01:31:24;15.80;99.90
8780;DHT22;62328;51.19929245;4.42130175;2023-10-19T01:34:03;15.80;99.90
8780;DHT22;62328;51.19929245;4.42130175;2023-10-19T01:36:32;15.70;99.90
8780;DHT22;62328;51.19929245;4.42130175;2023-10-19T01:39:04;15.70;99.90
8780;DHT22;62328;51.19929245;4.42130175;2023-10-19T01:41:35;15.70;99.90
8780;DHT22;62328;51.19929245;4.42130175;2023-10-19T01:44:03;15.70;99.90
8780;DHT22;62328;51.19929245;4.42130175;2023-10-19T01:46:31;15.80;99.90
8780;DHT22;62328;51.19929245;4.42130175;2023-10-19T01:49:00;15.90;99.90
8780;DHT22;62328;51.19929245;4.42130175;2023-10-19T01:51:30;15.90;99.90
8780;DHT22;62328;51.19929245;4.42130175;2023-10-19T01:54:04;15.80;99.90
8780;DHT22;62328;51.19929245;4.42130175;2023-10-19T01:56:30;15.80;99.90
8780;DHT22;62328;51.19929245;4.42130175;2023-10-19T01:58:59;15.80;99.90
8780;DHT22;62328;51.19929245;4.42130175;2023-10-19T02:01:25;15.80;99.90
8780;DHT22;62328;51.19929245;4.42130175;2023-10-19T02:03:55;15.70;99.90
8780;DHT22;62328;51.19929245;4.42130175;2023-10-19T02:06:24;15.70;99.90
8780;DHT22;62328;51.19929245;4.42130175;2023-10-19T02:08:55;15.80;99.90
8780;DHT22;62328;51.19929245;4.42130175;2023-10-19T02:11:24;15.90;99.90
8780;DHT22;62328;51.19929245;4.42130175;2023-10-19T02:13:55;15.80;99.90
8780;DHT22;62328;51.19929245;4.42130175;2023-10-19T02:16:26;15.90;99.90
8780;DHT22;62328;51.19929245;4.42130175;2023-10-19T02:18:55;15.90;99.90
8780;DHT22;62328;51.19929245;4.42130175;2023-10-19T02:21:21;15.80;99.90
8780;DHT22;62328;51.19929245;4.42130175;2023-10-19T02:23:52;15.80;99.90
8780;DHT22;62328;51.19929245;4.42130175;2023-10-19T02:26:20;15.80;99.90
8780;DHT22;62328;51.19929245;4.42130175;2023-10-19T02:28:49;15.80;99.90
8780;DHT22;62328;51.19929245;4.42130175;2023-10-19T02:31:18;15.70;99.90
8780;DHT22;62328;51.19929245;4.42130175;2023-10-19T02:33:44;15.80;99.90
8780;DHT22;62328;51.19929245;4.42130175;2023-10-19T02:36:17;15.70;99.90
8780;DHT22;62328;51.19929245;4.42130175;2023-10-19T02:38:44;15.70;99.90
8780;DHT22;62328;51.19929245;4.42130175;2023-10-19T02:41:14;15.70;99.90
8780;DHT22;62328;51.19929245;4.42130175;2023-10-19T02:43:41;15.70;99.90
8780;DHT22;62328;51.19929245;4.42130175;2023-10-19T02:46:12;15.70;99.90
8780;DHT22;62328;51.19929245;4.42130175;2023-10-19T02:48:39;15.70;99.90
8780;DHT22;62328;51.19929245;4.42130175;2023-10-19T02:51:10;15.70;99.90
8780;DHT22;62328;51.19929245;4.42130175;2023-10-19T02:53:37;15.70;99.90
8780;DHT22;62328;51.19929245;4.42130175;2023-10-19T02:56:12;15.60;99.90
8780;DHT22;62328;51.19929245;4.42130175;2023-10-19T02:58:41;15.60;99.90
8780;DHT22;62328;51.19929245;4.42130175;2023-10-19T03:01:15;15.60;99.90
8780;DHT22;62328;51.19929245;4.42130175;2023-10-19T03:03:43;15.50;99.90
8780;DHT22;62328;51.19929245;4.42130175;2023-10-19T03:06:12;15.50;99.90
8780;DHT22;62328;51.19929245;4.42130175;2023-10-19T03:08:37;15.50;99.90
8780;DHT22;62328;51.19929245;4.42130175;2023-10-19T03:11:04;15.50;99.90
8780;DHT22;62328;51.19929245;4.42130175;2023-10-19T03:13:31;15.40;99.90
8780;DHT22;62328;51.19929245;4.42130175;2023-10-19T03:15:59;15.50;99.90
8780;DHT22;62328;51.19929245;4.42130175;2023-10-19T03:18:27;15.40;99.90
8780;DHT22;62328;51.19929245;4.42130175;2023-10-19T03:20:55;15.40;99.90
8780;DHT22;62328;51.19929245;4.42130175;2023-10-19T03:23:21;15.40;99.90
8780;DHT22;62328;51.19929245;4.42130175;2023-10-19T03:25:54;15.30;99.90
8780;DHT22;62328;51.19929245;4.42130175;2023-10-19T03:28:47;15.30;99.90
8780;DHT22;62328;51.19929245;4.42130175;2023-10-19T03:31:14;15.30;99.90
8780;DHT22;62328;51.19929245;4.42130175;2023-10-19T03:33:45;15.30;99.90
8780;DHT22;62328;51.19929245;4.42130175;2023-10-19T03:36:20;15.20;99.90
8780;DHT22;62328;51.19929245;4.42130175;2023-10-19T03:38:48;15.10;99.90
8780;DHT22;62328;51.19929245;4.42130175;2023-10-19T03:41:15;15.10;99.90
8780;DHT22;62328;51.19929245;4.42130175;2023-10-19T03:43:47;15.10;99.90
8780;DHT22;62328;51.19929245;4.42130175;2023-10-19T03:46:14;15.10;99.90
8780;DHT22;62328;51.19929245;4.42130175;2023-10-19T03:48:49;15.10;99.90
8780;DHT22;62328;51.19929245;4.42130175;2023-10-19T03:51:16;15.10;99.90
8780;DHT22;62328;51.19929245;4.42130175;2023-10-19T03:53:44;15.10;99.90
8780;DHT22;62328;51.19929245;4.42130175;2023-10-19T03:56:15;15.00;99.90
8780;DHT22;62328;51.19929245;4.42130175;2023-10-19T03:58:44;15.10;99.90
8780;DHT22;62328;51.19929245;4.42130175;2023-10-19T04:01:15;15.10;99.90
8780;DHT22;62328;51.19929245;4.42130175;2023-10-19T04:03:42;15.10;99.90
8780;DHT22;62328;51.19929245;4.42130175;2023-10-19T04:06:11;15.20;99.90
8780;DHT22;62328;51.19929245;4.42130175;2023-10-19T04:08:40;15.20;99.90
8780;DHT22;62328;51.19929245;4.42130175;2023-10-19T04:11:10;15.10;99.90
8780;DHT22;62328;51.19929245;4.42130175;2023-10-19T04:13:48;15.20;99.90
8780;DHT22;62328;51.19929245;4.42130175;2023-10-19T04:16:19;15.20;99.90
8780;DHT22;62328;51.19929245;4.42130175;2023-10-19T04:18:46;15.10;99.90
8780;DHT22;62328;51.19929245;4.42130175;2023-10-19T04:21:15;15.10;99.90
8780;DHT22;62328;51.19929245;4.42130175;2023-10-19T04:23:42;15.10;99.90
8780;DHT22;62328;51.19929245;4.42130175;2023-10-19T04:26:09;15.20;99.90
8780;DHT22;62328;51.19929245;4.42130175;2023-10-19T04:28:40;15.20;99.90
8780;DHT22;62328;51.19929245;4.42130175;2023-10-19T04:31:15;15.20;99.90
8780;DHT22;62328;51.19929245;4.42130175;2023-10-19T04:33:43;15.30;99.90
8780;DHT22;62328;51.19929245;4.42130175;2023-10-19T04:36:12;15.30;99.90
8780;DHT22;62328;51.19929245;4.42130175;2023-10-19T04:38:41;15.30;99.90
8780;DHT22;62328;51.19929245;4.42130175;2023-10-19T04:41:10;15.30;99.90
8780;DHT22;62328;51.19929245;4.42130175;2023-10-19T04:43:38;15.20;99.90
8780;DHT22;62328;51.19929245;4.42130175;2023-10-19T04:46:07;15.30;99.90
8780;DHT22;62328;51.19929245;4.42130175;2023-10-19T04:48:37;15.30;99.90
8780;DHT22;62328;51.19929245;4.42130175;2023-10-19T04:51:06;15.30;99.90
8780;DHT22;62328;51.19929245;4.42130175;2023-10-19T04:53:35;15.30;99.90
8780;DHT22;62328;51.19929245;4.42130175;2023-10-19T04:56:05;15.20;99.90
8780;DHT22;62328;51.19929245;4.42130175;2023-10-19T04:58:34;15.20;99.90
8780;DHT22;62328;51.19929245;4.42130175;2023-10-19T05:01:02;15.20;99.90
8780;DHT22;62328;51.19929245;4.42130175;2023-10-19T05:03:29;15.20;99.90
8780;DHT22;62328;51.19929245;4.42130175;2023-10-19T05:05:56;15.10;99.90
8780;DHT22;62328;51.19929245;4.42130175;2023-10-19T05:08:23;15.20;99.90
8780;DHT22;62328;51.19929245;4.42130175;2023-10-19T05:10:53;15.30;99.90
8780;DHT22;62328;51.19929245;4.42130175;2023-10-19T05:13:23;15.30;99.90
8780;DHT22;62328;51.19929245;4.42130175;2023-10-19T05:15:51;15.40;99.90
8780;DHT22;62328;51.19929245;4.42130175;2023-10-19T05:18:18;15.40;99.90
8780;DHT22;62328;51.19929245;4.42130175;2023-10-19T05:20:46;15.40;99.90
8780;DHT22;62328;51.19929245;4.42130175;2023-10-19T05:23:13;15.30;99.90
8780;DHT22;62328;51.19929245;4.42130175;2023-10-19T05:25:41;15.30;99.90
8780;DHT22;62328;51.19929245;4.42130175;2023-10-19T05:28:11;15.40;99.90
8780;DHT22;62328;51.19929245;4.42130175;2023-10-19T05:30:40;15.40;99.90
8780;DHT22;62328;51.19929245;4.42130175;2023-10-19T05:33:07;15.40;99.90
8780;DHT22;62328;51.19929245;4.42130175;2023-10-19T05:35:34;15.40;99.90
8780;DHT22;62328;51.19929245;4.42130175;2023-10-19T05:38:06;15.40;99.90
8780;DHT22;62328;51.19929245;4.42130175;2023-10-19T05:40:33;15.40;99.90
8780;DHT22;62328;51.19929245;4.42130175;2023-10-19T05:43:02;15.40;99.90
8780;DHT22;62328;51.19929245;4.42130175;2023-10-19T05:45:29;15.40;99.90
8780;DHT22;62328;51.19929245;4.42130175;2023-10-19T05:47:59;15.40;99.90
8780;DHT22;62328;51.19929245;4.42130175;2023-10-19T05:50:26;15.40;99.90
8780;DHT22;62328;51.19929245;4.42130175;2023-10-19T05:52:54;15.30;99.90
8780;DHT22;62328;51.19929245;4.42130175;2023-10-19T05:55:21;15.30;99.90
8780;DHT22;62328;51.19929245;4.42130175;2023-10-19T05:57:48;15.40;99.90
8780;DHT22;62328;51.19929245;4.42130175;2023-10-19T06:00:17;15.30;99.90
8780;DHT22;62328;51.19929245;4.42130175;2023-10-19T06:02:47;15.30;99.90
8780;DHT22;62328;51.19929245;4.42130175;2023-10-19T06:05:16;15.30;99.90
8780;DHT22;62328;51.19929245;4.42130175;2023-10-19T06:07:44;15.40;99.90
8780;DHT22;62328;51.19929245;4.42130175;2023-10-19T06:10:12;15.40;99.90
8780;DHT22;62328;51.19929245;4.42130175;2023-10-19T06:12:43;15.40;99.90
8780;DHT22;62328;51.19929245;4.42130175;2023-10-19T06:15:10;15.40;99.90
8780;DHT22;62328;51.19929245;4.42130175;2023-10-19T06:17:38;15.50;99.90
8780;DHT22;62328;51.19929245;4.42130175;2023-10-19T06:20:08;15.50;99.90
8780;DHT22;62328;51.19929245;4.42130175;2023-10-19T06:22:47;15.50;99.90
8780;DHT22;62328;51.19929245;4.42130175;2023-10-19T06:25:16;15.50;99.90
8780;DHT22;62328;51.19929245;4.42130175;2023-10-19T06:27:45;15.50;99.90
8780;DHT22;62328;51.19929245;4.42130175;2023-10-19T06:30:13;15.50;99.90
8780;DHT22;62328;51.19929245;4.42130175;2023-10-19T06:32:45;15.50;99.90
8780;DHT22;62328;51.19929245;4.42130175;2023-10-19T06:35:12;15.50;99.90
8780;DHT22;62328;51.19929245;4.42130175;2023-10-19T06:37:40;15.50;99.90
8780;DHT22;62328;51.19929245;4.42130175;2023-10-19T06:40:09;15.50;99.90
8780;DHT22;62328;51.19929245;4.42130175;2023-10-19T06:42:37;15.40;99.90
8780;DHT22;62328;51.19929245;4.42130175;2023-10-19T06:45:07;15.40;99.90
8780;DHT22;62328;51.19929245;4.42130175;2023-10-19T06:47:35;15.40;99.90
8780;DHT22;62328;51.19929245;4.42130175;2023-10-19T06:50:05;15.40;99.90
8780;DHT22;62328;51.19929245;4.42130175;2023-10-19T06:52:33;15.40;99.90
8780;DHT22;62328;51.19929245;4.42130175;2023-10-19T06:55:02;15.40;99.90
8780;DHT22;62328;51.19929245;4.42130175;2023-10-19T06:57:31;15.40;99.90
8780;DHT22;62328;51.19929245;4.42130175;2023-10-19T06:59:58;15.50;99.90
8780;DHT22;62328;51.19929245;4.42130175;2023-10-19T07:02:34;15.50;99.90
8780;DHT22;62328;51.19929245;4.42130175;2023-10-19T07:05:01;15.50;99.90
8780;DHT22;62328;51.19929245;4.42130175;2023-10-19T07:07:28;15.50;99.90
8780;DHT22;62328;51.19929245;4.42130175;2023-10-19T07:09:57;15.40;99.90
8780;DHT22;62328;51.19929245;4.42130175;2023-10-19T07:12:24;15.50;99.90
8780;DHT22;62328;51.19929245;4.42130175;2023-10-19T07:14:52;15.40;99.90
8780;DHT22;62328;51.19929245;4.42130175;2023-10-19T07:17:19;15.40;99.90
8780;DHT22;62328;51.19929245;4.42130175;2023-10-19T07:19:46;15.40;99.90
8780;DHT22;62328;51.19929245;4.42130175;2023-10-19T07:22:14;15.30;99.90
8780;DHT22;62328;51.19929245;4.42130175;2023-10-19T07:24:42;15.40;99.90
8780;DHT22;62328;51.19929245;4.42130175;2023-10-19T07:27:10;15.30;99.90
8780;DHT22;62328;51.19929245;4.42130175;2023-10-19T07:29:44;15.30;99.90
8780;DHT22;62328;51.19929245;4.42130175;2023-10-19T07:32:12;15.40;99.90
8780;DHT22;62328;51.19929245;4.42130175;2023-10-19T07:34:42;15.40;99.90
8780;DHT22;62328;51.19929245;4.42130175;2023-10-19T07:37:10;15.50;99.90
8780;DHT22;62328;51.19929245;4.42130175;2023-10-19T07:39:40;15.50;99.90
8780;DHT22;62328;51.19929245;4.42130175;2023-10-19T07:42:11;15.50;99.90
8780;DHT22;62328;51.19929245;4.42130175;2023-10-19T07:44:37;15.60;99.90
8780;DHT22;62328;51.19929245;4.42130175;2023-10-19T07:47:05;15.60;99.90
8780;DHT22;62328;51.19929245;4.42130175;2023-10-19T07:49:36;15.70;99.90
8780;DHT22;62328;51.19929245;4.42130175;2023-10-19T07:52:04;15.70;99.90
8780;DHT22;62328;51.19929245;4.42130175;2023-10-19T07:54:32;15.80;99.90
8780;DHT22;62328;51.19929245;4.42130175;2023-10-19T07:56:59;15.80;99.90
8780;DHT22;62328;51.19929245;4.42130175;2023-10-19T07:59:29;15.80;99.90
8780;DHT22;62328;51.19929245;4.42130175;2023-10-19T08:01:56;15.80;99.90
8780;DHT22;62328;51.19929245;4.42130175;2023-10-19T08:04:23;15.70;99.90
8780;DHT22;62328;51.19929245;4.42130175;2023-10-19T08:06:52;15.80;99.90
8780;DHT22;62328;51.19929245;4.42130175;2023-10-19T08:09:19;15.80;99.90
8780;DHT22;62328;51.19929245;4.42130175;2023-10-19T08:11:48;15.80;99.90
8780;DHT22;62328;51.19929245;4.42130175;2023-10-19T08:14:15;15.80;99.90
8780;DHT22;62328;51.19929245;4.42130175;2023-10-19T08:16:42;16.00;99.90
8780;DHT22;62328;51.19929245;4.42130175;2023-10-19T08:19:09;16.00;99.90
8780;DHT22;62328;51.19929245;4.42130175;2023-10-19T08:21:37;16.10;99.90
8780;DHT22;62328;51.19929245;4.42130175;2023-10-19T08:24:06;16.10;99.90
8780;DHT22;62328;51.19929245;4.42130175;2023-10-19T08:26:39;16.10;99.90
8780;DHT22;62328;51.19929245;4.42130175;2023-10-19T08:29:07;16.10;99.90
8780;DHT22;62328;51.19929245;4.42130175;2023-10-19T08:31:38;16.20;99.90
8780;DHT22;62328;51.19929245;4.42130175;2023-10-19T08:34:05;16.20;99.90
8780;DHT22;62328;51.19929245;4.42130175;2023-10-19T08:36:32;16.20;99.90
8780;DHT22;62328;51.19929245;4.42130175;2023-10-19T08:39:00;16.20;99.90
8780;DHT22;62328;51.19929245;4.42130175;2023-10-19T08:41:32;16.20;99.90
8780;DHT22;62328;51.19929245;4.42130175;2023-10-19T08:44:01;16.30;99.90
8780;DHT22;62328;51.19929245;4.42130175;2023-10-19T08:46:28;16.30;99.90
8780;DHT22;62328;51.19929245;4.42130175;2023-10-19T08:48:55;16.20;99.90
8780;DHT22;62328;51.19929245;4.42130175;2023-10-19T08:51:24;16.30;99.90
8780;DHT22;62328;51.19929245;4.42130175;2023-10-19T08:53:53;16.30;99.90
8780;DHT22;62328;51.19929245;4.42130175;2023-10-19T08:56:20;16.30;99.90
8780;DHT22;62328;51.19929245;4.42130175;2023-10-19T08:58:50;16.30;99.90
8780;DHT22;62328;51.19929245;4.42130175;2023-10-19T09:01:18;16.30;99.90
8780;DHT22;62328;51.19929245;4.42130175;2023-10-19T09:03:50;16.40;99.90
8780;DHT22;62328;51.19929245;4.42130175;2023-10-19T09:06:17;16.40;99.90
8780;DHT22;62328;51.19929245;4.42130175;2023-10-19T09:08:47;16.50;99.90
8780;DHT22;62328;51.19929245;4.42130175;2023-10-19T09:11:15;16.50;99.90
8780;DHT22;62328;51.19929245;4.42130175;2023-10-19T09:13:45;16.60;99.90
8780;DHT22;62328;51.19929245;4.42130175;2023-10-19T09:16:15;16.70;99.90
8780;DHT22;62328;51.19929245;4.42130175;2023-10-19T09:18:42;16.80;99.90
8780;DHT22;62328;51.19929245;4.42130175;2023-10-19T09:21:10;16.80;99.90
8780;DHT22;62328;51.19929245;4.42130175;2023-10-19T09:23:38;16.90;99.90
8780;DHT22;62328;51.19929245;4.42130175;2023-10-19T09:26:07;16.80;99.90
8780;DHT22;62328;51.19929245;4.42130175;2023-10-19T09:28:35;16.80;99.90
8780;DHT22;62328;51.19929245;4.42130175;2023-10-19T09:31:03;16.90;99.90
8780;DHT22;62328;51.19929245;4.42130175;2023-10-19T09:33:33;16.90;99.90
8780;DHT22;62328;51.19929245;4.42130175;2023-10-19T09:36:01;16.80;99.90
8780;DHT22;62328;51.19929245;4.42130175;2023-10-19T09:38:30;16.90;99.90
8780;DHT22;62328;51.19929245;4.42130175;2023-10-19T09:40:57;16.80;99.90
8780;DHT22;62328;51.19929245;4.42130175;2023-10-19T09:43:33;16.80;99.90
8780;DHT22;62328;51.19929245;4.42130175;2023-10-19T09:46:01;16.80;99.90
8780;DHT22;62328;51.19929245;4.42130175;2023-10-19T09:48:39;16.80;99.90
8780;DHT22;62328;51.19929245;4.42130175;2023-10-19T09:51:08;16.90;99.90
8780;DHT22;62328;51.19929245;4.42130175;2023-10-19T09:53:36;16.90;99.90
8780;DHT22;62328;51.19929245;4.42130175;2023-10-19T09:56:06;16.90;99.90
8780;DHT22;62328;51.19929245;4.42130175;2023-10-19T09:58:36;16.80;99.90
8780;DHT22;62328;51.19929245;4.42130175;2023-10-19T10:01:08;16.80;99.90
8780;DHT22;62328;51.19929245;4.42130175;2023-10-19T10:03:47;16.80;99.90
8780;DHT22;62328;51.19929245;4.42130175;2023-10-19T10:06:16;16.80;99.90
8780;DHT22;62328;51.19929245;4.42130175;2023-10-19T10:08:46;16.80;99.90
8780;DHT22;62328;51.19929245;4.42130175;2023-10-19T10:11:21;16.80;99.90
8780;DHT22;62328;51.19929245;4.42130175;2023-10-19T10:13:49;16.80;99.90
8780;DHT22;62328;51.19929245;4.42130175;2023-10-19T10:16:21;16.80;99.90
8780;DHT22;62328;51.19929245;4.42130175;2023-10-19T10:18:50;16.80;99.90
8780;DHT22;62328;51.19929245;4.42130175;2023-10-19T10:21:19;16.80;99.90
8780;DHT22;62328;51.19929245;4.42130175;2023-10-19T10:23:49;16.80;99.90
8780;DHT22;62328;51.19929245;4.42130175;2023-10-19T10:26:17;16.70;99.90
8780;DHT22;62328;51.19929245;4.42130175;2023-10-19T10:28:49;16.70;99.90
8780;DHT22;62328;51.19929245;4.42130175;2023-10-19T10:31:42;16.70;99.90
8780;DHT22;62328;51.19929245;4.42130175;2023-10-19T10:34:10;16.70;99.90
8780;DHT22;62328;51.19929245;4.42130175;2023-10-19T10:36:59;16.70;99.90
8780;DHT22;62328;51.19929245;4.42130175;2023-10-19T10:39:28;16.70;99.90
8780;DHT22;62328;51.19929245;4.42130175;2023-10-19T10:41:56;16.70;99.90
8780;DHT22;62328;51.19929245;4.42130175;2023-10-19T10:44:39;16.80;99.90
8780;DHT22;62328;51.19929245;4.42130175;2023-10-19T10:47:07;16.90;99.90
8780;DHT22;62328;51.19929245;4.42130175;2023-10-19T10:49:46;17.00;99.90
8780;DHT22;62328;51.19929245;4.42130175;2023-10-19T10:52:23;17.00;99.90
8780;DHT22;62328;51.19929245;4.42130175;2023-10-19T10:54:51;17.10;99.90
8780;DHT22;62328;51.19929245;4.42130175;2023-10-19T10:57:19;17.10;99.90
8780;DHT22;62328;51.19929245;4.42130175;2023-10-19T10:59:46;17.10;99.90
8780;DHT22;62328;51.19929245;4.42130175;2023-10-19T11:02:19;17.10;99.90
8780;DHT22;62328;51.19929245;4.42130175;2023-10-19T11:04:48;17.10;99.90
8780;DHT22;62328;51.19929245;4.42130175;2023-10-19T11:07:19;17.10;99.90
8780;DHT22;62328;51.19929245;4.42130175;2023-10-19T11:09:47;17.10;99.90
8780;DHT22;62328;51.19929245;4.42130175;2023-10-19T11:12:14;17.10;99.90
8780;DHT22;62328;51.19929245;4.42130175;2023-10-19T11:14:52;17.10;99.90
8780;DHT22;62328;51.19929245;4.42130175;2023-10-19T11:17:19;17.10;99.90
8780;DHT22;62328;51.19929245;4.42130175;2023-10-19T11:19:50;17.20;99.90
8780;DHT22;62328;51.19929245;4.42130175;2023-10-19T11:22:17;17.20;99.90
8780;DHT22;62328;51.19929245;4.42130175;2023-10-19T11:24:44;17.20;99.90
8780;DHT22;62328;51.19929245;4.42130175;2023-10-19T11:27:11;17.20;99.90
8780;DHT22;62328;51.19929245;4.42130175;2023-10-19T11:29:38;17.20;99.90
8780;DHT22;62328;51.19929245;4.42130175;2023-10-19T11:32:04;17.20;99.90
8780;DHT22;62328;51.19929245;4.42130175;2023-10-19T11:34:32;17.20;99.90
8780;DHT22;62328;51.19929245;4.42130175;2023-10-19T11:37:01;17.10;99.90
8780;DHT22;62328;51.19929245;4.42130175;2023-10-19T11:39:30;17.10;99.90
8780;DHT22;62328;51.19929245;4.42130175;2023-10-19T11:41:57;17.10;99.90
8780;DHT22;62328;51.19929245;4.42130175;2023-10-19T11:44:25;17.00;99.90
8780;DHT22;62328;51.19929245;4.42130175;2023-10-19T11:46:52;16.90;99.90
8780;DHT22;62328;51.19929245;4.42130175;2023-10-19T11:49:19;16.90;99.90
8780;DHT22;62328;51.19929245;4.42130175;2023-10-19T11:51:46;16.90;99.90
8780;DHT22;62328;51.19929245;4.42130175;2023-10-19T11:54:14;16.80;99.90
8780;DHT22;62328;51.19929245;4.42130175;2023-10-19T11:56:44;16.80;99.90
8780;DHT22;62328;51.19929245;4.42130175;2023-10-19T11:59:11;16.70;99.90
8780;DHT22;62328;51.19929245;4.42130175;2023-10-19T12:01:39;16.70;99.90
8780;DHT22;62328;51.19929245;4.42130175;2023-10-19T12:04:05;16.70;99.90
8780;DHT22;62328;51.19929245;4.42130175;2023-10-19T12:06:32;16.70;99.90
8780;DHT22;62328;51.19929245;4.42130175;2023-10-19T12:08:59;16.70;99.90
8780;DHT22;62328;51.19929245;4.42130175;2023-10-19T12:11:41;16.70;99.90
8780;DHT22;62328;51.19929245;4.42130175;2023-10-19T12:14:09;16.70;99.90
8780;DHT22;62328;51.19929245;4.42130175;2023-10-19T12:16:40;16.70;99.90
8780;DHT22;62328;51.19929245;4.42130175;2023-10-19T12:19:07;16.60;99.90
8780;DHT22;62328;51.19929245;4.42130175;2023-10-19T12:21:34;16.60;99.90
8780;DHT22;62328;51.19929245;4.42130175;2023-10-19T12:24:03;16.60;99.90
8780;DHT22;62328;51.19929245;4.42130175;2023-10-19T12:26:31;16.60;99.90
8780;DHT22;62328;51.19929245;4.42130175;2023-10-19T12:28:59;16.60;99.90
8780;DHT22;62328;51.19929245;4.42130175;2023-10-19T12:31:26;16.70;99.90
8780;DHT22;62328;51.19929245;4.42130175;2023-10-19T12:33:55;16.70;99.90
8780;DHT22;62328;51.19929245;4.42130175;2023-10-19T12:36:22;16.70;99.90
8780;DHT22;62328;51.19929245;4.42130175;2023-10-19T12:38:57;16.70;99.90
8780;DHT22;62328;51.19929245;4.42130175;2023-10-19T12:41:24;16.70;99.90
8780;DHT22;62328;51.19929245;4.42130175;2023-10-19T12:43:51;16.70;99.90
8780;DHT22;62328;51.19929245;4.42130175;2023-10-19T12:46:24;16.70;99.90
8780;DHT22;62328;51.19929245;4.42130175;2023-10-19T12:48:53;16.70;99.90
8780;DHT22;62328;51.19929245;4.42130175;2023-10-19T12:51:21;16.70;99.90
8780;DHT22;62328;51.19929245;4.42130175;2023-10-19T12:53:50;16.60;99.90
8780;DHT22;62328;51.19929245;4.42130175;2023-10-19T12:56:17;16.60;99.90
8780;DHT22;62328;51.19929245;4.42130175;2023-10-19T12:58:44;16.60;99.90
8780;DHT22;62328;51.19929245;4.42130175;2023-10-19T13:01:12;16.60;99.90
8780;DHT22;62328;51.19929245;4.42130175;2023-10-19T13:03:46;16.60;99.90
8780;DHT22;62328;51.19929245;4.42130175;2023-10-19T13:06:13;16.60;99.90
8780;DHT22;62328;51.19929245;4.42130175;2023-10-19T13:08:40;16.60;99.90
8780;DHT22;62328;51.19929245;4.42130175;2023-10-19T13:11:08;16.70;99.90
8780;DHT22;62328;51.19929245;4.42130175;2023-10-19T13:13:35;16.70;99.90
8780;DHT22;62328;51.19929245;4.42130175;2023-10-19T13:16:03;16.80;99.90
8780;DHT22;62328;51.19929245;4.42130175;2023-10-19T13:18:31;16.80;99.90
8780;DHT22;62328;51.19929245;4.42130175;2023-10-19T13:21:01;16.90;99.90
8780;DHT22;62328;51.19929245;4.42130175;2023-10-19T13:23:30;16.90;99.90
8780;DHT22;62328;51.19929245;4.42130175;2023-10-19T13:25:59;17.00;99.90
8780;DHT22;62328;51.19929245;4.42130175;2023-10-19T13:28:34;17.10;99.90
8780;DHT22;62328;51.19929245;4.42130175;2023-10-19T13:31:03;17.30;99.90
8780;DHT22;62328;51.19929245;4.42130175;2023-10-19T13:33:30;17.40;99.90
8780;DHT22;62328;51.19929245;4.42130175;2023-10-19T13:35:57;17.50;99.90
8780;DHT22;62328;51.19929245;4.42130175;2023-10-19T13:38:26;17.70;99.90
8780;DHT22;62328;51.19929245;4.42130175;2023-10-19T13:40:53;17.70;99.90
8780;DHT22;62328;51.19929245;4.42130175;2023-10-19T13:43:20;17.80;99.90
8780;DHT22;62328;51.19929245;4.42130175;2023-10-19T13:45:47;17.80;99.90